AirNav   Phillips 66 Aviation Fuel
 
 1703 users online  

4K3 Lexington Municipal Airport
Lexington, Missouri, USA

GOING TO LEXINGTON?


FAA INFORMATION EFFECTIVE 16 AUGUST 2018

Location

FAA Identifier: 4K3
Lat/Long: 39-12-35.6000N / 093-55-39.8000W
39-12.593333N / 093-55.663333W
39.2098889 / -93.9277222
(estimated)
Elevation: 691 ft. / 210.6 m (surveyed)
Variation: 04E (1985)
From city: 3 miles NW of LEXINGTON, MO
Time zone: UTC -5 (UTC -6 during Standard Time)
Zip code: 64036

Airport Operations

Airport use: Open to the public
Activation date: 12/1945
Control tower: no
ARTCC: KANSAS CITY CENTER
FSS: COLUMBIA FLIGHT SERVICE STATION
NOTAMs facility: COU (NOTAM-D service available)
Attendance: IRREGULAR 24 HOURS/DAY
Wind indicator: yes
Segmented circle: no
Lights: RWY 4/22 LIRL OTS INDEFLY.
Beacon: white-green (lighted land airport)
ROTATING BCN OTS INDEFLY

Airport Communications

CTAF/UNICOM: 122.7
WX AWOS-3 at GPH (19 nm NW): 120.275 (816-407-3399)
  • APCH/DEP SERVICE PROVIDED BY KANSAS CITY ARTCC ON FREQS 135.575/323.15 (KNOB NOSTER RCAG).

Nearby radio navigation aids

VOR radial/distance  VOR name  Freq  Var
ANXr047/11.6NAPOLEON VORTAC114.0007E
BQSr183/25.4BRAYMER VOR/DME111.2003E
MCIr092/37.9KANSAS CITY VORTAC113.2505E

 
NDB name  Hdg/Dist  Freq  Var  ID
MARSHALL283/35.537103EPUR .--. ..- .-.

Airport Services

Parking: hangars and tiedowns
Bottled oxygen: NONE
Bulk oxygen: NONE

Runway Information

Runway 4/22

Dimensions: 2925 x 40 ft. / 892 x 12 m
Surface: asphalt, in good condition
RY 04/22 ROUGH, LARGE PITS IN SFC, CRACKS.
Runway edge lights: low intensity
RUNWAY 4  RUNWAY 22
Latitude: 39-12.414867N39-12.770117N
Longitude: 093-55.818150W093-55.399750W
Elevation: 691.0 ft.689.0 ft.
Traffic pattern: leftleft
Runway heading: 038 magnetic, 042 true218 magnetic, 222 true
Markings: NSTD, in poor conditionNSTD, in poor condition
Touchdown point: yes, no lightsno, no lights
Obstructions: 15 ft. road, 430 ft. from runway, 16:1 slope to clearnone

Runway 13/31

Dimensions: 3100 x 125 ft. / 945 x 38 m
Surface: turf, in good condition
RUNWAY 13  RUNWAY 31
Latitude: 39-12.784217N39-12.415330N
Longitude: 093-55.819643W093-55.365503W
Elevation: 690.0 ft.690.0 ft.
Traffic pattern: leftleft
Runway heading: 132 magnetic, 136 true312 magnetic, 316 true
Obstructions: 25 ft. pline, marked, 330 ft. from runway, 150 ft. left and right of centerline, 13:1 slope to clear15 ft. road, 270 ft. from runway, 140 ft. left and right of centerline, 18:1 slope to clear

Runway 18/36

Dimensions: 2250 x 125 ft. / 686 x 38 m
Surface: turf, in good condition
RUNWAY 18  RUNWAY 36
Latitude: 39-12.769533N39-12.398467N
Longitude: 093-55.829917W093-55.829917W
Elevation: 690.0 ft.690.0 ft.
Traffic pattern: leftleft
Runway heading: 176 magnetic, 180 true356 magnetic, 000 true
Obstructions: none15 ft. road, 227 ft. from runway, 15:1 slope to clear

Airport Ownership and Management from official FAA records

Ownership: Privately-owned
Owner: DAVID EDWARDS
11215 GREAT CANADIAN LANE
RICHMOND, MO 64085
Phone (816) 752-5333
Manager: DAVID EDWARDS
11215 GREAT CANADIAN LANE
RICHMOND, MO 64085
Phone (816) 752-5333

Airport Operational Statistics

Aircraft based on the field: 2
Single engine airplanes: 2
  • ULTRALIGHT ACTIVITY & RADIO CONTROLLED AIRPLANES ON & INVOF ARPT.
    
Aircraft operations: avg 92/week *
58% local general aviation
31% transient general aviation
5% military
5% air taxi
* for 12-month period ending 31 December 2015

Additional Remarks

SPORT AVIATION ACTIVITIES IN PROGRESS ON WEEKENDS.
MIGRATORY BIRDS INVOF ARPT DURING SPRING AND FALL.
NTSD RWY SAFETY AREA RWY22; INCORRECT TERRAIN GRADES.

Instrument Procedures

There are no published instrument procedures at 4K3.

Some nearby airports with instrument procedures:

KHIG - Higginsville Industrial Municipal Airport (14 nm SE)
3EX - Excelsior Springs Memorial Airport (15 nm NW)
3GV - East Kansas City Airport (18 nm SW)
KGPH - Midwest National Air Center Airport (19 nm NW)
KLXT - Lee's Summit Municipal Airport (26 nm SW)
 
Loc | Ops | Rwys | IFR | FBO | Links
Com | Nav | Svcs | Stats | Notes

Kansas City Aviation Department
 
Area around 4K3 (Lexington Municipal Airport)
 
Road maps at: MapQuest Bing Google
 
Aerial photo
WARNING: Photo may not be current or correct
Aerial photo of 4K3 (Lexington Municipal Airport)
Do you have a better or more recent aerial photo of Lexington Municipal Airport that you would like to share? If so, please send us your photo.

 
Sectional chart

 
Airport distance calculator
Flying to Lexington Municipal Airport? Find the distance to fly.

From to 4K3

Sunrise and sunset
Times for 21-Aug-2018
 Local
(UTC-5)
 Zulu
(UTC)
Morning civil twilight06:0711:07
Sunrise06:3511:35
Sunset20:0201:02
Evening civil twilight20:3101:31

Current date and time
Zulu (UTC)  21-Aug-2018 16:10:04
Local (UTC-5)  21-Aug-2018 11:10:04
 
METAR
KGPH 
19nm NW 
211555Z AUTO 34008KT 10SM CLR 23/16 A3011 RMK AO2
KLXT 
25nm SW 
211553Z AUTO 35010KT 10SM CLR A3012 RMK AO2 SLPNO $
KRCM 
26nm S 
211555Z AUTO 33010KT 10SM SCT020 23/16 A3009 RMK AO2
KMKC 
32nm W 
211554Z 32011KT 10SM CLR 24/17 A3011 RMK AO2 SLP190 T02390172
KMHL 
34nm E 
211555Z AUTO 33008G15KT 293V003 10SM SCT023 22/18 A3008 RMK AO2
KSZL 
35nm SE 
211556Z 35010KT 10SM SCT023 23/18 A3004 RMK AO2A SLP170 T02320176 $
KEZZ 
35nm NW 
211555Z AUTO 33007KT 310V020 10SM CLR 23/18 A3012 RMK AO2 T02350176
KMCI 
38nm W 
211553Z 35012KT 8SM SCT130 23/18 A3013 RMK AO2 SLP195 T02330183
TAF
KMKC 
32nm W 
211300Z 2113/2212 33006KT P6SM FEW012 FM211400 35007KT P6SM SCT035 FM211800 34007KT P6SM FEW090
KSZL 
35nm SE 
211245Z 2112/2217 32009KT 9999 BKN010 OVC025 QNH2986INS BECMG 2115/2116 33012G20KT 9999 SCT010 BKN020 QNH3003INS BECMG 2120/2121 34010G15KT 9999 FEW040 QNH3010INS BECMG 2200/2201 33006KT 9999 SCT040 QNH3006INS BECMG 2205/2206 34006KT 9000 BR SCT025 QNH3015INS BECMG 2211/2212 VRB06KT 9999 NSW FEW027 QNH3020INS TX28/2120Z TN18/2212Z
KMCI 
38nm W 
211300Z 2113/2212 32010KT P6SM SCT016 TEMPO 2113/2115 6SM BR FM211500 36007KT P6SM SCT035 FM211800 34007KT P6SM FEW090
NOTAMs
Click for the latest NOTAMs
NOTAMs are issued by the DoD/FAA and will open in a separate window not controlled by AirNav.

 

 
 

Would you like to see your business listed on this page?

 If your business provides an interesting product or service to pilots, flight crews, aircraft, or users of the Lexington Municipal Airport, you should consider listing it here.  To start the listing process, click on the button below
 
Add a business
 

Other Pages about Lexington Municipal Airport

Update a link
 
Copyright © AirNav, LLC. All rights reserved. Privacy Policy  Contact